Estación Meteorológica Peña el Pijo (Robertgarden) [ 01/30/23 14:16:20 CET ]

Fecha Hora Presion(HPa) Temp (°C) Humedad % Rocio (°C) Viento ( m/s) Direccion Lluvia 1Hora(mm) Lluvia 24H(mm) LLuvia Total(mm)
2010-Mar-06 01:01:12 1006.100 4.1 87 2.1         97.38
2010-Mar-06 02:04:08 1006.300 3.8 88 2.0     1.55 1.55 98.93
2010-Mar-06 03:01:14 1005.900 3.4 88 1.6     0.51 2.07 99.45
2010-Mar-06 04:01:14 1005.400 3.1 89 1.4       2.07 99.45
2010-Mar-06 05:01:14 1005.500 2.3 88 0.5       2.07 99.45
2010-Mar-06 06:01:14 1005.900 1.8 89 0.1       2.07 99.45
2010-Mar-06 07:01:13 1005.500 1.3 91 -0.1       2.07 99.45
2010-Mar-06 08:01:13 1005.400 1.2 92 0.0       2.07 99.45
2010-Mar-06 09:01:12 1005.800 1.3 91 -0.1       2.07 99.45
2010-Mar-06 10:01:11 1005.600 1.3 91 -0.1       2.07 99.45
2010-Mar-06 11:01:12 1005.500 1.5 92 0.3       2.07 99.45
2010-Mar-06 12:01:12 1005.000 2.9 88 1.1       2.07 99.45
2010-Mar-06 13:01:14 1004.700 4.6 72 -0.0 1.4 ENE   2.07 99.45
2010-Mar-06 14:01:11 1003.600 4.9 67 -0.7       2.07 99.45
2010-Mar-06 15:01:16 1002.800 5.6 62 -1.1       2.07 99.45
2010-Mar-06 16:01:17 1002.700 5.6 60 -1.6       2.07 99.45
2010-Mar-06 17:01:13 1002.300 5.3 58 -2.3       2.07 99.45
2010-Mar-06 18:01:12 1002.300 4.9 58 -2.7       2.07 99.45
2010-Mar-06 19:01:11 1002.700 4.4 59 -3.0       2.07 99.45
2010-Mar-06 20:01:12 1002.700 4.1 61 -2.8       2.07 99.45
2010-Mar-06 21:01:13 1002.800 3.9 64 -2.4       2.07 99.45
2010-Mar-06 22:01:14 1003.200 3.9 66 -1.9       2.07 99.45
2010-Mar-06 23:01:13 1003.200 3.8 69 -1.4       2.07 99.45

Temperatura Máxima:    Temperatura Mínima:
Presión Máxima:1006.300 Hpa    Presión Mínima:1002.300 Hpa


Volver